sensor_id;sensor_type;location;lat;lon;timestamp;P1;durP1;ratioP1;P2;durP2;ratioP2
23336;SDS011;11840;45.414;12.372;2023-06-22T04:59:16;10.60;;;9.20;;
23336;SDS011;11840;45.414;12.372;2023-06-22T05:01:43;10.20;;;9.18;;
23336;SDS011;11840;45.414;12.372;2023-06-22T05:04:09;10.98;;;9.18;;
23336;SDS011;11840;45.414;12.372;2023-06-22T05:06:35;11.35;;;9.00;;
23336;SDS011;11840;45.414;12.372;2023-06-22T05:09:00;10.85;;;9.73;;
23336;SDS011;11840;45.414;12.372;2023-06-22T05:11:26;11.60;;;9.02;;
23336;SDS011;11840;45.414;12.372;2023-06-22T05:13:53;12.32;;;9.85;;
23336;SDS011;11840;45.414;12.372;2023-06-22T05:16:19;10.98;;;9.52;;
23336;SDS011;11840;45.414;12.372;2023-06-22T05:18:50;11.20;;;10.05;;
23336;SDS011;11840;45.414;12.372;2023-06-22T05:21:16;12.32;;;8.85;;
23336;SDS011;11840;45.414;12.372;2023-06-22T05:23:42;12.40;;;9.88;;
23336;SDS011;11840;45.414;12.372;2023-06-22T05:26:07;12.70;;;9.50;;
23336;SDS011;11840;45.414;12.372;2023-06-22T05:28:35;12.98;;;9.45;;
23336;SDS011;11840;45.414;12.372;2023-06-22T05:31:01;12.05;;;10.77;;
23336;SDS011;11840;45.414;12.372;2023-06-22T05:33:27;10.40;;;9.02;;
23336;SDS011;11840;45.414;12.372;2023-06-22T05:35:53;12.73;;;10.48;;
23336;SDS011;11840;45.414;12.372;2023-06-22T05:38:20;13.35;;;10.40;;
23336;SDS011;11840;45.414;12.372;2023-06-22T05:40:45;13.35;;;9.48;;
23336;SDS011;11840;45.414;12.372;2023-06-22T05:43:11;10.93;;;9.82;;
23336;SDS011;11840;45.414;12.372;2023-06-22T05:45:37;11.60;;;10.30;;
23336;SDS011;11840;45.414;12.372;2023-06-22T05:48:04;10.60;;;9.52;;
23336;SDS011;11840;45.414;12.372;2023-06-22T05:50:30;11.88;;;10.70;;
23336;SDS011;11840;45.414;12.372;2023-06-22T05:52:56;11.85;;;10.60;;
23336;SDS011;11840;45.414;12.372;2023-06-22T05:55:21;12.80;;;11.10;;
23336;SDS011;11840;45.414;12.372;2023-06-22T05:57:47;14.35;;;12.32;;
23336;SDS011;11840;45.414;12.372;2023-06-22T06:00:13;12.13;;;10.77;;
23336;SDS011;11840;45.414;12.372;2023-06-22T06:02:40;14.40;;;10.32;;
23336;SDS011;11840;45.414;12.372;2023-06-22T06:05:12;12.02;;;10.77;;
23336;SDS011;11840;45.414;12.372;2023-06-22T06:07:45;16.02;;;11.18;;
23336;SDS011;11840;45.414;12.372;2023-06-22T06:10:19;15.93;;;13.57;;
23336;SDS011;11840;45.414;12.372;2023-06-22T06:12:45;14.85;;;11.93;;
23336;SDS011;11840;45.414;12.372;2023-06-22T06:15:11;15.88;;;11.80;;
23336;SDS011;11840;45.414;12.372;2023-06-22T06:17:44;21.98;;;12.07;;
23336;SDS011;11840;45.414;12.372;2023-06-22T06:20:10;13.95;;;11.02;;
23336;SDS011;11840;45.414;12.372;2023-06-22T06:22:37;18.55;;;10.82;;
23336;SDS011;11840;45.414;12.372;2023-06-22T06:25:03;13.73;;;11.45;;
23336;SDS011;11840;45.414;12.372;2023-06-22T06:27:30;15.02;;;10.82;;
23336;SDS011;11840;45.414;12.372;2023-06-22T06:29:56;14.48;;;9.90;;
23336;SDS011;11840;45.414;12.372;2023-06-22T06:32:23;13.05;;;9.20;;
23336;SDS011;11840;45.414;12.372;2023-06-22T06:34:50;9.90;;;8.90;;
23336;SDS011;11840;45.414;12.372;2023-06-22T06:37:16;13.48;;;9.13;;
23336;SDS011;11840;45.414;12.372;2023-06-22T06:39:42;11.27;;;8.30;;
23336;SDS011;11840;45.414;12.372;2023-06-22T06:42:08;11.80;;;9.38;;
23336;SDS011;11840;45.414;12.372;2023-06-22T06:44:34;12.70;;;9.90;;
23336;SDS011;11840;45.414;12.372;2023-06-22T06:47:00;11.05;;;9.95;;
23336;SDS011;11840;45.414;12.372;2023-06-22T06:49:26;11.45;;;9.40;;
23336;SDS011;11840;45.414;12.372;2023-06-22T06:51:51;12.20;;;9.48;;
23336;SDS011;11840;45.414;12.372;2023-06-22T06:54:17;10.43;;;8.88;;
23336;SDS011;11840;45.414;12.372;2023-06-22T06:56:45;11.20;;;9.52;;
23336;SDS011;11840;45.414;12.372;2023-06-22T06:59:16;12.85;;;9.73;;
23336;SDS011;11840;45.414;12.372;2023-06-22T07:01:42;10.52;;;9.43;;
23336;SDS011;11840;45.414;12.372;2023-06-22T07:04:10;12.00;;;10.75;;
23336;SDS011;11840;45.414;12.372;2023-06-22T07:06:35;11.60;;;10.30;;
23336;SDS011;11840;45.414;12.372;2023-06-22T07:09:01;10.65;;;9.55;;
23336;SDS011;11840;45.414;12.372;2023-06-22T07:11:27;11.68;;;8.73;;
23336;SDS011;11840;45.414;12.372;2023-06-22T07:13:53;10.05;;;9.05;;
23336;SDS011;11840;45.414;12.372;2023-06-22T07:16:19;10.88;;;9.77;;
23336;SDS011;11840;45.414;12.372;2023-06-22T07:18:45;14.07;;;9.75;;
23336;SDS011;11840;45.414;12.372;2023-06-22T07:21:11;13.07;;;11.38;;
23336;SDS011;11840;45.414;12.372;2023-06-22T07:23:37;13.07;;;11.23;;
23336;SDS011;11840;45.414;12.372;2023-06-22T07:26:03;13.77;;;10.65;;
23336;SDS011;11840;45.414;12.372;2023-06-22T07:28:31;13.32;;;10.85;;
23336;SDS011;11840;45.414;12.372;2023-06-22T07:31:02;11.05;;;8.80;;
23336;SDS011;11840;45.414;12.372;2023-06-22T07:33:29;13.55;;;10.43;;
23336;SDS011;11840;45.414;12.372;2023-06-22T07:35:55;14.00;;;9.48;;
23336;SDS011;11840;45.414;12.372;2023-06-22T07:38:20;12.43;;;8.90;;
23336;SDS011;11840;45.414;12.372;2023-06-22T07:40:46;10.55;;;9.15;;
23336;SDS011;11840;45.414;12.372;2023-06-22T07:43:13;11.48;;;8.70;;
23336;SDS011;11840;45.414;12.372;2023-06-22T07:45:39;12.80;;;7.50;;
23336;SDS011;11840;45.414;12.372;2023-06-22T07:48:06;11.02;;;9.02;;
23336;SDS011;11840;45.414;12.372;2023-06-22T07:50:32;13.30;;;9.00;;
23336;SDS011;11840;45.414;12.372;2023-06-22T07:52:58;11.52;;;8.25;;
23336;SDS011;11840;45.414;12.372;2023-06-22T07:55:24;10.20;;;9.10;;
23336;SDS011;11840;45.414;12.372;2023-06-22T07:57:50;10.60;;;9.13;;
23336;SDS011;11840;45.414;12.372;2023-06-22T08:00:17;10.63;;;9.57;;
23336;SDS011;11840;45.414;12.372;2023-06-22T08:02:44;12.25;;;10.43;;
23336;SDS011;11840;45.414;12.372;2023-06-22T08:05:11;10.32;;;8.35;;
23336;SDS011;11840;45.414;12.372;2023-06-22T08:07:36;10.32;;;9.23;;
23336;SDS011;11840;45.414;12.372;2023-06-22T08:10:03;13.43;;;9.52;;
23336;SDS011;11840;45.414;12.372;2023-06-22T08:12:29;9.90;;;8.43;;
23336;SDS011;11840;45.414;12.372;2023-06-22T08:14:54;10.13;;;8.00;;
23336;SDS011;11840;45.414;12.372;2023-06-22T08:17:20;11.13;;;9.07;;
23336;SDS011;11840;45.414;12.372;2023-06-22T08:19:47;12.95;;;8.80;;
23336;SDS011;11840;45.414;12.372;2023-06-22T08:22:13;12.60;;;8.27;;
23336;SDS011;11840;45.414;12.372;2023-06-22T08:24:39;9.07;;;7.95;;
23336;SDS011;11840;45.414;12.372;2023-06-22T08:27:06;7.35;;;6.63;;
23336;SDS011;11840;45.414;12.372;2023-06-22T08:29:34;9.32;;;7.25;;
23336;SDS011;11840;45.414;12.372;2023-06-22T08:32:00;10.90;;;7.25;;
23336;SDS011;11840;45.414;12.372;2023-06-22T08:34:26;7.82;;;6.68;;
23336;SDS011;11840;45.414;12.372;2023-06-22T08:36:53;8.77;;;7.35;;
23336;SDS011;11840;45.414;12.372;2023-06-22T08:39:19;9.98;;;7.82;;
23336;SDS011;11840;45.414;12.372;2023-06-22T08:41:46;9.95;;;7.03;;
23336;SDS011;11840;45.414;12.372;2023-06-22T08:44:11;9.63;;;7.28;;
23336;SDS011;11840;45.414;12.372;2023-06-22T08:46:37;8.95;;;7.43;;
23336;SDS011;11840;45.414;12.372;2023-06-22T08:49:04;12.18;;;7.30;;
23336;SDS011;11840;45.414;12.372;2023-06-22T08:51:30;8.77;;;7.47;;
23336;SDS011;11840;45.414;12.372;2023-06-22T08:53:56;9.32;;;7.35;;
23336;SDS011;11840;45.414;12.372;2023-06-22T08:56:22;8.43;;;7.53;;
23336;SDS011;11840;45.414;12.372;2023-06-22T08:58:48;8.18;;;7.35;;
23336;SDS011;11840;45.414;12.372;2023-06-22T09:01:13;8.38;;;7.57;;
23336;SDS011;11840;45.414;12.372;2023-06-22T09:03:41;8.07;;;7.28;;
23336;SDS011;11840;45.414;12.372;2023-06-22T09:06:07;9.48;;;7.53;;
23336;SDS011;11840;45.414;12.372;2023-06-22T09:08:35;8.38;;;7.00;;
23336;SDS011;11840;45.414;12.372;2023-06-22T09:11:01;9.85;;;7.22;;
23336;SDS011;11840;45.414;12.372;2023-06-22T09:13:30;9.00;;;8.10;;
23336;SDS011;11840;45.414;12.372;2023-06-22T09:15:56;8.40;;;7.38;;
23336;SDS011;11840;45.414;12.372;2023-06-22T09:18:22;9.02;;;7.35;;
23336;SDS011;11840;45.414;12.372;2023-06-22T09:20:48;8.50;;;7.60;;
23336;SDS011;11840;45.414;12.372;2023-06-22T09:23:14;10.48;;;8.00;;
23336;SDS011;11840;45.414;12.372;2023-06-22T09:25:40;8.00;;;7.20;;
23336;SDS011;11840;45.414;12.372;2023-06-22T09:28:06;9.55;;;7.47;;
23336;SDS011;11840;45.414;12.372;2023-06-22T09:30:32;7.30;;;6.50;;
23336;SDS011;11840;45.414;12.372;2023-06-22T09:32:58;8.38;;;6.90;;
23336;SDS011;11840;45.414;12.372;2023-06-22T09:35:25;7.97;;;6.55;;
23336;SDS011;11840;45.414;12.372;2023-06-22T09:37:52;6.95;;;6.35;;
23336;SDS011;11840;45.414;12.372;2023-06-22T09:40:17;8.27;;;6.55;;
23336;SDS011;11840;45.414;12.372;2023-06-22T09:42:42;8.45;;;6.85;;
23336;SDS011;11840;45.414;12.372;2023-06-22T09:45:08;8.05;;;6.88;;
23336;SDS011;11840;45.414;12.372;2023-06-22T09:47:35;9.32;;;6.80;;
23336;SDS011;11840;45.414;12.372;2023-06-22T09:50:02;9.88;;;7.15;;
23336;SDS011;11840;45.414;12.372;2023-06-22T09:52:28;12.55;;;6.68;;
23336;SDS011;11840;45.414;12.372;2023-06-22T09:54:54;8.63;;;6.57;;
23336;SDS011;11840;45.414;12.372;2023-06-22T09:57:20;8.20;;;7.30;;
23336;SDS011;11840;45.414;12.372;2023-06-22T09:59:47;9.60;;;7.00;;
23336;SDS011;11840;45.414;12.372;2023-06-22T10:02:12;8.32;;;7.53;;
23336;SDS011;11840;45.414;12.372;2023-06-22T10:04:38;8.10;;;6.80;;
23336;SDS011;11840;45.414;12.372;2023-06-22T10:07:05;10.70;;;7.38;;
23336;SDS011;11840;45.414;12.372;2023-06-22T10:09:31;10.15;;;7.40;;
23336;SDS011;11840;45.414;12.372;2023-06-22T10:11:57;9.82;;;7.25;;
23336;SDS011;11840;45.414;12.372;2023-06-22T10:14:23;7.90;;;7.10;;
23336;SDS011;11840;45.414;12.372;2023-06-22T10:16:51;9.00;;;7.20;;
23336;SDS011;11840;45.414;12.372;2023-06-22T10:19:18;7.05;;;6.35;;
23336;SDS011;11840;45.414;12.372;2023-06-22T10:21:44;8.32;;;6.38;;
23336;SDS011;11840;45.414;12.372;2023-06-22T10:24:09;8.60;;;6.57;;
23336;SDS011;11840;45.414;12.372;2023-06-22T10:26:36;9.98;;;6.95;;
23336;SDS011;11840;45.414;12.372;2023-06-22T10:29:02;8.38;;;6.38;;
23336;SDS011;11840;45.414;12.372;2023-06-22T10:31:28;7.82;;;6.95;;
23336;SDS011;11840;45.414;12.372;2023-06-22T10:33:54;9.77;;;7.70;;
23336;SDS011;11840;45.414;12.372;2023-06-22T10:36:21;8.32;;;6.97;;
23336;SDS011;11840;45.414;12.372;2023-06-22T10:38:47;6.82;;;6.13;;
23336;SDS011;11840;45.414;12.372;2023-06-22T10:41:13;8.23;;;7.38;;
23336;SDS011;11840;45.414;12.372;2023-06-22T10:43:39;9.80;;;6.53;;
23336;SDS011;11840;45.414;12.372;2023-06-22T10:46:06;7.70;;;6.80;;
23336;SDS011;11840;45.414;12.372;2023-06-22T10:48:32;9.90;;;6.60;;
23336;SDS011;11840;45.414;12.372;2023-06-22T10:50:59;9.10;;;6.57;;
23336;SDS011;11840;45.414;12.372;2023-06-22T10:53:24;16.25;;;7.22;;
23336;SDS011;11840;45.414;12.372;2023-06-22T10:55:50;7.00;;;6.22;;
23336;SDS011;11840;45.414;12.372;2023-06-22T10:58:17;8.07;;;5.85;;
23336;SDS011;11840;45.414;12.372;2023-06-22T11:00:43;8.88;;;6.03;;
23336;SDS011;11840;45.414;12.372;2023-06-22T11:03:09;6.60;;;5.50;;
23336;SDS011;11840;45.414;12.372;2023-06-22T11:05:35;10.85;;;5.90;;
23336;SDS011;11840;45.414;12.372;2023-06-22T11:08:01;8.00;;;6.30;;
23336;SDS011;11840;45.414;12.372;2023-06-22T11:10:27;8.15;;;6.28;;
23336;SDS011;11840;45.414;12.372;2023-06-22T11:12:53;6.38;;;5.63;;
23336;SDS011;11840;45.414;12.372;2023-06-22T11:15:21;9.30;;;5.30;;
23336;SDS011;11840;45.414;12.372;2023-06-22T11:17:47;7.78;;;6.30;;
23336;SDS011;11840;45.414;12.372;2023-06-22T11:20:13;9.38;;;5.70;;
23336;SDS011;11840;45.414;12.372;2023-06-22T11:22:39;8.55;;;6.45;;
23336;SDS011;11840;45.414;12.372;2023-06-22T11:25:05;8.82;;;5.80;;
23336;SDS011;11840;45.414;12.372;2023-06-22T11:27:32;7.72;;;5.72;;
23336;SDS011;11840;45.414;12.372;2023-06-22T11:29:58;6.88;;;6.13;;
23336;SDS011;11840;45.414;12.372;2023-06-22T11:32:24;6.55;;;5.93;;
23336;SDS011;11840;45.414;12.372;2023-06-22T11:34:50;6.97;;;5.82;;
23336;SDS011;11840;45.414;12.372;2023-06-22T11:37:16;9.15;;;6.00;;
23336;SDS011;11840;45.414;12.372;2023-06-22T11:39:42;9.35;;;6.20;;
23336;SDS011;11840;45.414;12.372;2023-06-22T11:42:08;7.63;;;5.90;;
23336;SDS011;11840;45.414;12.372;2023-06-22T11:44:34;9.18;;;6.10;;
23336;SDS011;11840;45.414;12.372;2023-06-22T11:47:00;8.88;;;6.18;;
23336;SDS011;11840;45.414;12.372;2023-06-22T11:49:26;8.02;;;6.32;;
23336;SDS011;11840;45.414;12.372;2023-06-22T11:51:53;7.30;;;6.60;;
23336;SDS011;11840;45.414;12.372;2023-06-22T11:54:19;8.43;;;6.57;;
23336;SDS011;11840;45.414;12.372;2023-06-22T11:56:45;8.95;;;6.63;;
23336;SDS011;11840;45.414;12.372;2023-06-22T11:59:11;8.70;;;6.57;;
23336;SDS011;11840;45.414;12.372;2023-06-22T12:01:37;9.45;;;6.60;;
23336;SDS011;11840;45.414;12.372;2023-06-22T12:04:03;7.20;;;6.50;;
23336;SDS011;11840;45.414;12.372;2023-06-22T12:06:31;7.80;;;6.90;;
23336;SDS011;11840;45.414;12.372;2023-06-22T12:08:57;9.57;;;6.38;;
23336;SDS011;11840;45.414;12.372;2023-06-22T12:11:23;11.93;;;7.25;;
23336;SDS011;11840;45.414;12.372;2023-06-22T12:13:49;11.48;;;6.47;;
23336;SDS011;11840;45.414;12.372;2023-06-22T12:16:15;9.18;;;6.47;;
23336;SDS011;11840;45.414;12.372;2023-06-22T12:18:41;9.88;;;6.95;;
23336;SDS011;11840;45.414;12.372;2023-06-22T12:21:07;6.80;;;6.03;;
23336;SDS011;11840;45.414;12.372;2023-06-22T12:23:33;8.85;;;5.82;;
23336;SDS011;11840;45.414;12.372;2023-06-22T12:25:59;9.88;;;6.38;;
23336;SDS011;11840;45.414;12.372;2023-06-22T12:28:27;6.95;;;5.93;;
23336;SDS011;11840;45.414;12.372;2023-06-22T12:30:53;6.82;;;6.13;;
23336;SDS011;11840;45.414;12.372;2023-06-22T12:33:19;6.93;;;5.78;;
23336;SDS011;11840;45.414;12.372;2023-06-22T12:35:45;9.35;;;6.68;;
23336;SDS011;11840;45.414;12.372;2023-06-22T12:38:10;8.00;;;5.60;;
23336;SDS011;11840;45.414;12.372;2023-06-22T12:40:36;11.27;;;5.80;;
23336;SDS011;11840;45.414;12.372;2023-06-22T12:43:02;6.65;;;5.70;;
23336;SDS011;11840;45.414;12.372;2023-06-22T12:45:28;7.53;;;5.40;;
23336;SDS011;11840;45.414;12.372;2023-06-22T12:47:56;13.18;;;6.18;;
23336;SDS011;11840;45.414;12.372;2023-06-22T12:50:23;7.90;;;5.45;;
23336;SDS011;11840;45.414;12.372;2023-06-22T12:52:48;7.32;;;5.38;;
23336;SDS011;11840;45.414;12.372;2023-06-22T12:55:14;8.90;;;5.22;;
23336;SDS011;11840;45.414;12.372;2023-06-22T12:57:40;69.65;;;13.88;;
23336;SDS011;11840;45.414;12.372;2023-06-22T13:00:06;11.70;;;6.35;;
23336;SDS011;11840;45.414;12.372;2023-06-22T13:02:35;49.35;;;10.32;;
23336;SDS011;11840;45.414;12.372;2023-06-22T13:05:01;9.30;;;6.03;;
23336;SDS011;11840;45.414;12.372;2023-06-22T13:07:27;10.13;;;6.18;;
23336;SDS011;11840;45.414;12.372;2023-06-22T13:09:52;7.70;;;5.60;;
23336;SDS011;11840;45.414;12.372;2023-06-22T13:12:19;7.07;;;5.30;;
23336;SDS011;11840;45.414;12.372;2023-06-22T13:14:45;7.80;;;5.75;;
23336;SDS011;11840;45.414;12.372;2023-06-22T13:17:12;8.10;;;5.55;;
23336;SDS011;11840;45.414;12.372;2023-06-22T13:19:38;9.45;;;5.68;;
23336;SDS011;11840;45.414;12.372;2023-06-22T13:22:04;6.28;;;5.60;;
23336;SDS011;11840;45.414;12.372;2023-06-22T13:24:32;7.35;;;5.70;;
23336;SDS011;11840;45.414;12.372;2023-06-22T13:26:58;9.00;;;5.88;;
23336;SDS011;11840;45.414;12.372;2023-06-22T13:29:24;6.25;;;4.82;;
23336;SDS011;11840;45.414;12.372;2023-06-22T13:31:50;6.43;;;5.40;;
23336;SDS011;11840;45.414;12.372;2023-06-22T13:34:16;10.63;;;5.90;;
23336;SDS011;11840;45.414;12.372;2023-06-22T13:36:41;10.77;;;6.50;;
23336;SDS011;11840;45.414;12.372;2023-06-22T13:39:07;7.85;;;5.72;;
23336;SDS011;11840;45.414;12.372;2023-06-22T13:41:33;9.23;;;5.80;;
23336;SDS011;11840;45.414;12.372;2023-06-22T13:43:59;7.97;;;5.45;;
23336;SDS011;11840;45.414;12.372;2023-06-22T13:46:24;9.38;;;5.82;;
23336;SDS011;11840;45.414;12.372;2023-06-22T13:48:50;10.65;;;5.57;;
23336;SDS011;11840;45.414;12.372;2023-06-22T13:51:16;36.65;;;7.68;;
23336;SDS011;11840;45.414;12.372;2023-06-22T13:53:43;8.45;;;5.50;;
23336;SDS011;11840;45.414;12.372;2023-06-22T13:56:09;11.38;;;5.95;;
23336;SDS011;11840;45.414;12.372;2023-06-22T13:58:35;13.93;;;6.30;;
23336;SDS011;11840;45.414;12.372;2023-06-22T14:01:01;8.38;;;5.82;;
23336;SDS011;11840;45.414;12.372;2023-06-22T14:03:27;7.15;;;5.65;;
23336;SDS011;11840;45.414;12.372;2023-06-22T14:05:53;9.52;;;6.00;;
23336;SDS011;11840;45.414;12.372;2023-06-22T14:08:21;7.43;;;5.40;;
23336;SDS011;11840;45.414;12.372;2023-06-22T14:10:49;7.30;;;5.50;;
23336;SDS011;11840;45.414;12.372;2023-06-22T14:13:15;9.23;;;5.50;;
23336;SDS011;11840;45.414;12.372;2023-06-22T14:15:41;7.97;;;5.60;;
23336;SDS011;11840;45.414;12.372;2023-06-22T14:18:08;8.18;;;5.53;;
23336;SDS011;11840;45.414;12.372;2023-06-22T14:20:34;6.25;;;5.65;;
23336;SDS011;11840;45.414;12.372;2023-06-22T14:23:00;10.63;;;5.75;;
23336;SDS011;11840;45.414;12.372;2023-06-22T14:25:26;6.72;;;5.05;;
23336;SDS011;11840;45.414;12.372;2023-06-22T14:27:52;9.88;;;5.60;;
23336;SDS011;11840;45.414;12.372;2023-06-22T14:30:18;7.70;;;5.82;;
23336;SDS011;11840;45.414;12.372;2023-06-22T14:32:44;7.43;;;4.78;;
23336;SDS011;11840;45.414;12.372;2023-06-22T14:35:10;7.30;;;5.50;;
23336;SDS011;11840;45.414;12.372;2023-06-22T14:37:36;7.10;;;5.22;;
23336;SDS011;11840;45.414;12.372;2023-06-22T14:40:02;8.20;;;5.55;;
23336;SDS011;11840;45.414;12.372;2023-06-22T14:42:28;7.55;;;5.13;;
23336;SDS011;11840;45.414;12.372;2023-06-22T14:44:55;6.38;;;5.25;;
23336;SDS011;11840;45.414;12.372;2023-06-22T14:47:21;8.63;;;5.40;;
23336;SDS011;11840;45.414;12.372;2023-06-22T14:49:47;8.88;;;5.43;;
23336;SDS011;11840;45.414;12.372;2023-06-22T14:52:13;6.75;;;5.15;;
23336;SDS011;11840;45.414;12.372;2023-06-22T14:54:39;8.13;;;5.25;;
23336;SDS011;11840;45.414;12.372;2023-06-22T14:57:06;8.82;;;5.40;;
23336;SDS011;11840;45.414;12.372;2023-06-22T14:59:31;7.30;;;5.03;;
23336;SDS011;11840;45.414;12.372;2023-06-22T15:01:58;9.00;;;5.07;;
23336;SDS011;11840;45.414;12.372;2023-06-22T15:04:23;10.10;;;5.60;;
23336;SDS011;11840;45.414;12.372;2023-06-22T15:06:49;9.18;;;5.47;;
23336;SDS011;11840;45.414;12.372;2023-06-22T15:09:15;8.48;;;5.55;;
23336;SDS011;11840;45.414;12.372;2023-06-22T15:11:41;7.45;;;5.13;;
23336;SDS011;11840;45.414;12.372;2023-06-22T15:14:08;9.38;;;5.82;;
23336;SDS011;11840;45.414;12.372;2023-06-22T15:16:34;9.75;;;5.38;;
23336;SDS011;11840;45.414;12.372;2023-06-22T15:19:00;6.47;;;5.35;;
23336;SDS011;11840;45.414;12.372;2023-06-22T15:21:26;9.82;;;5.72;;
23336;SDS011;11840;45.414;12.372;2023-06-22T15:23:53;8.68;;;5.95;;
23336;SDS011;11840;45.414;12.372;2023-06-22T15:26:20;9.55;;;6.05;;
23336;SDS011;11840;45.414;12.372;2023-06-22T15:28:46;8.10;;;5.78;;
23336;SDS011;11840;45.414;12.372;2023-06-22T15:31:12;8.00;;;5.93;;
23336;SDS011;11840;45.414;12.372;2023-06-22T15:33:37;8.85;;;6.10;;
23336;SDS011;11840;45.414;12.372;2023-06-22T15:36:03;7.10;;;5.95;;
23336;SDS011;11840;45.414;12.372;2023-06-22T15:38:31;6.28;;;5.32;;
23336;SDS011;11840;45.414;12.372;2023-06-22T15:40:57;9.27;;;5.95;;
23336;SDS011;11840;45.414;12.372;2023-06-22T15:43:23;6.40;;;5.32;;
23336;SDS011;11840;45.414;12.372;2023-06-22T15:45:48;6.47;;;5.43;;
23336;SDS011;11840;45.414;12.372;2023-06-22T15:48:14;7.85;;;5.85;;
23336;SDS011;11840;45.414;12.372;2023-06-22T15:50:41;7.63;;;5.95;;
23336;SDS011;11840;45.414;12.372;2023-06-22T15:53:06;21.35;;;6.85;;
23336;SDS011;11840;45.414;12.372;2023-06-22T15:55:33;9.73;;;6.00;;
23336;SDS011;11840;45.414;12.372;2023-06-22T15:58:00;7.47;;;5.63;;
23336;SDS011;11840;45.414;12.372;2023-06-22T16:00:26;6.78;;;5.93;;
23336;SDS011;11840;45.414;12.372;2023-06-22T16:02:52;10.40;;;6.20;;
23336;SDS011;11840;45.414;12.372;2023-06-22T16:05:18;8.30;;;5.78;;
23336;SDS011;11840;45.414;12.372;2023-06-22T16:07:44;12.88;;;6.30;;
23336;SDS011;11840;45.414;12.372;2023-06-22T16:10:10;10.38;;;6.28;;
23336;SDS011;11840;45.414;12.372;2023-06-22T16:12:36;7.72;;;4.95;;
23336;SDS011;11840;45.414;12.372;2023-06-22T16:15:02;9.90;;;5.22;;
23336;SDS011;11840;45.414;12.372;2023-06-22T16:17:29;7.85;;;4.53;;
23336;SDS011;11840;45.414;12.372;2023-06-22T16:19:55;8.88;;;4.63;;
23336;SDS011;11840;45.414;12.372;2023-06-22T16:22:22;7.82;;;5.18;;
23336;SDS011;11840;45.414;12.372;2023-06-22T16:24:48;7.70;;;5.00;;
23336;SDS011;11840;45.414;12.372;2023-06-22T16:27:15;8.20;;;5.32;;
23336;SDS011;11840;45.414;12.372;2023-06-22T16:29:41;10.07;;;5.47;;
23336;SDS011;11840;45.414;12.372;2023-06-22T16:32:07;6.70;;;4.85;;
23336;SDS011;11840;45.414;12.372;2023-06-22T16:34:33;6.70;;;5.03;;
23336;SDS011;11840;45.414;12.372;2023-06-22T16:36:59;9.20;;;5.38;;
23336;SDS011;11840;45.414;12.372;2023-06-22T16:39:25;5.55;;;5.00;;
23336;SDS011;11840;45.414;12.372;2023-06-22T16:41:51;8.45;;;5.00;;
23336;SDS011;11840;45.414;12.372;2023-06-22T16:44:17;7.30;;;5.18;;
23336;SDS011;11840;45.414;12.372;2023-06-22T16:46:44;8.25;;;5.65;;
23336;SDS011;11840;45.414;12.372;2023-06-22T16:49:10;9.77;;;5.38;;
23336;SDS011;11840;45.414;12.372;2023-06-22T16:51:35;8.05;;;5.70;;
23336;SDS011;11840;45.414;12.372;2023-06-22T16:54:01;6.88;;;5.10;;
23336;SDS011;11840;45.414;12.372;2023-06-22T16:56:27;8.25;;;5.43;;
23336;SDS011;11840;45.414;12.372;2023-06-22T16:58:54;9.35;;;5.10;;
23336;SDS011;11840;45.414;12.372;2023-06-22T17:01:22;6.25;;;5.53;;
23336;SDS011;11840;45.414;12.372;2023-06-22T17:03:50;8.10;;;5.40;;
23336;SDS011;11840;45.414;12.372;2023-06-22T17:06:20;9.43;;;5.30;;
23336;SDS011;11840;45.414;12.372;2023-06-22T17:08:46;8.23;;;5.00;;
23336;SDS011;11840;45.414;12.372;2023-06-22T17:11:12;6.85;;;5.40;;
23336;SDS011;11840;45.414;12.372;2023-06-22T17:13:38;6.32;;;5.10;;
23336;SDS011;11840;45.414;12.372;2023-06-22T17:16:04;6.80;;;5.30;;
23336;SDS011;11840;45.414;12.372;2023-06-22T17:18:31;9.27;;;5.65;;
23336;SDS011;11840;45.414;12.372;2023-06-22T17:20:58;9.35;;;5.70;;
23336;SDS011;11840;45.414;12.372;2023-06-22T17:23:26;7.28;;;5.15;;
23336;SDS011;11840;45.414;12.372;2023-06-22T17:25:53;9.60;;;6.20;;
23336;SDS011;11840;45.414;12.372;2023-06-22T17:28:19;7.70;;;6.03;;
23336;SDS011;11840;45.414;12.372;2023-06-22T17:30:44;10.38;;;6.15;;
23336;SDS011;11840;45.414;12.372;2023-06-22T17:33:13;8.63;;;6.40;;
23336;SDS011;11840;45.414;12.372;2023-06-22T17:35:46;7.28;;;6.32;;
23336;SDS011;11840;45.414;12.372;2023-06-22T17:38:19;8.60;;;6.60;;
23336;SDS011;11840;45.414;12.372;2023-06-22T17:40:45;9.03;;;6.83;;
23336;SDS011;11840;45.414;12.372;2023-06-22T17:43:12;9.80;;;6.45;;
23336;SDS011;11840;45.414;12.372;2023-06-22T17:45:41;8.70;;;6.25;;
23336;SDS011;11840;45.414;12.372;2023-06-22T17:48:08;7.35;;;5.88;;
23336;SDS011;11840;45.414;12.372;2023-06-22T17:50:37;7.25;;;6.50;;
23336;SDS011;11840;45.414;12.372;2023-06-22T17:53:09;7.93;;;6.03;;
23336;SDS011;11840;45.414;12.372;2023-06-22T17:55:35;6.85;;;5.70;;
23336;SDS011;11840;45.414;12.372;2023-06-22T17:58:01;6.75;;;5.97;;
23336;SDS011;11840;45.414;12.372;2023-06-22T18:00:28;9.73;;;6.38;;
23336;SDS011;11840;45.414;12.372;2023-06-22T18:02:55;7.05;;;5.78;;
23336;SDS011;11840;45.414;12.372;2023-06-22T18:05:44;7.72;;;5.75;;
23336;SDS011;11840;45.414;12.372;2023-06-22T18:08:07;6.85;;;5.75;;
23336;SDS011;11840;45.414;12.372;2023-06-22T18:10:36;7.82;;;6.03;;
23336;SDS011;11840;45.414;12.372;2023-06-22T18:13:03;7.43;;;6.07;;
23336;SDS011;11840;45.414;12.372;2023-06-22T18:15:30;10.05;;;5.90;;
23336;SDS011;11840;45.414;12.372;2023-06-22T18:17:56;6.57;;;5.80;;
23336;SDS011;11840;45.414;12.372;2023-06-22T18:20:24;10.27;;;5.80;;
23336;SDS011;11840;45.414;12.372;2023-06-22T18:22:50;10.70;;;6.18;;
23336;SDS011;11840;45.414;12.372;2023-06-22T18:25:18;9.00;;;5.80;;
23336;SDS011;11840;45.414;12.372;2023-06-22T18:27:45;7.20;;;5.45;;
23336;SDS011;11840;45.414;12.372;2023-06-22T18:30:12;7.65;;;5.93;;
23336;SDS011;11840;45.414;12.372;2023-06-22T18:32:39;8.13;;;5.75;;
23336;SDS011;11840;45.414;12.372;2023-06-22T18:35:05;7.03;;;5.75;;
23336;SDS011;11840;45.414;12.372;2023-06-22T18:37:31;8.75;;;5.40;;
23336;SDS011;11840;45.414;12.372;2023-06-22T18:39:59;11.30;;;6.40;;
23336;SDS011;11840;45.414;12.372;2023-06-22T18:42:25;6.30;;;5.50;;
23336;SDS011;11840;45.414;12.372;2023-06-22T18:44:54;10.30;;;5.80;;
23336;SDS011;11840;45.414;12.372;2023-06-22T18:47:27;10.15;;;5.65;;
23336;SDS011;11840;45.414;12.372;2023-06-22T18:49:53;8.23;;;5.40;;
23336;SDS011;11840;45.414;12.372;2023-06-22T18:52:25;8.73;;;5.75;;
23336;SDS011;11840;45.414;12.372;2023-06-22T18:54:51;7.65;;;5.95;;
23336;SDS011;11840;45.414;12.372;2023-06-22T18:57:24;12.30;;;5.50;;
23336;SDS011;11840;45.414;12.372;2023-06-22T18:59:58;8.50;;;6.22;;
23336;SDS011;11840;45.414;12.372;2023-06-22T19:02:41;7.05;;;5.15;;
23336;SDS011;11840;45.414;12.372;2023-06-22T19:10:59;6.32;;;5.32;;
23336;SDS011;11840;45.414;12.372;2023-06-22T19:15:41;7.85;;;5.43;;
23336;SDS011;11840;45.414;12.372;2023-06-22T19:18:23;6.82;;;5.82;;
23336;SDS011;11840;45.414;12.372;2023-06-22T19:20:52;8.35;;;6.13;;
23336;SDS011;11840;45.414;12.372;2023-06-22T19:25:53;10.73;;;5.97;;
23336;SDS011;11840;45.414;12.372;2023-06-22T19:28:30;8.65;;;5.97;;
23336;SDS011;11840;45.414;12.372;2023-06-22T19:31:05;12.88;;;6.30;;
23336;SDS011;11840;45.414;12.372;2023-06-22T19:33:31;8.98;;;6.20;;